sensor_id;sensor_type;location;lat;lon;timestamp;pressure;altitude;pressure_sealevel;temperature;humidity
30873;BME280;17579;42.690;2.586;2023-03-03T00:00:35;97177.69;;;6.00;50.87
30873;BME280;17579;42.690;2.586;2023-03-03T00:03:04;97173.50;;;5.97;50.76
30873;BME280;17579;42.690;2.586;2023-03-03T00:05:32;97177.81;;;5.98;50.80
30873;BME280;17579;42.690;2.586;2023-03-03T00:07:58;97169.28;;;5.95;50.78
30873;BME280;17579;42.690;2.586;2023-03-03T00:10:24;97173.72;;;5.94;50.72
30873;BME280;17579;42.690;2.586;2023-03-03T00:12:50;97176.34;;;5.94;50.89
30873;BME280;17579;42.690;2.586;2023-03-03T00:15:18;97170.16;;;5.95;50.79
30873;BME280;17579;42.690;2.586;2023-03-03T00:17:44;97188.53;;;5.95;50.58
30873;BME280;17579;42.690;2.586;2023-03-03T00:22:37;97185.78;;;5.97;50.69
30873;BME280;17579;42.690;2.586;2023-03-03T00:27:34;97182.53;;;5.93;50.64
30873;BME280;17579;42.690;2.586;2023-03-03T00:30:00;97185.91;;;5.95;50.60
30873;BME280;17579;42.690;2.586;2023-03-03T00:32:30;97192.44;;;5.89;50.69
30873;BME280;17579;42.690;2.586;2023-03-03T00:37:32;97186.38;;;5.89;50.72
30873;BME280;17579;42.690;2.586;2023-03-03T00:40:12;97184.81;;;5.86;50.58
30873;BME280;17579;42.690;2.586;2023-03-03T00:42:40;97162.50;;;5.92;50.63
30873;BME280;17579;42.690;2.586;2023-03-03T00:48:18;97169.06;;;5.86;50.58
30873;BME280;17579;42.690;2.586;2023-03-03T00:50:45;97166.09;;;5.91;50.27
30873;BME280;17579;42.690;2.586;2023-03-03T00:53:14;97182.91;;;5.88;50.51
30873;BME280;17579;42.690;2.586;2023-03-03T00:55:40;97182.78;;;5.90;50.36
30873;BME280;17579;42.690;2.586;2023-03-03T00:58:06;97176.81;;;5.88;50.20
30873;BME280;17579;42.690;2.586;2023-03-03T01:00:33;97186.38;;;5.89;50.29
30873;BME280;17579;42.690;2.586;2023-03-03T01:03:02;97184.69;;;5.88;50.34
30873;BME280;17579;42.690;2.586;2023-03-03T01:05:27;97176.69;;;5.89;50.33
30873;BME280;17579;42.690;2.586;2023-03-03T01:07:53;97179.56;;;5.86;50.38
30873;BME280;17579;42.690;2.586;2023-03-03T01:10:19;97178.81;;;5.84;50.27
30873;BME280;17579;42.690;2.586;2023-03-03T01:12:45;97169.19;;;5.85;50.31
30873;BME280;17579;42.690;2.586;2023-03-03T01:15:12;97163.94;;;5.85;50.39
30873;BME280;17579;42.690;2.586;2023-03-03T01:17:39;97172.63;;;5.85;50.35
30873;BME280;17579;42.690;2.586;2023-03-03T01:20:06;97177.75;;;5.87;50.41
30873;BME280;17579;42.690;2.586;2023-03-03T01:22:32;97179.44;;;5.88;50.51
30873;BME280;17579;42.690;2.586;2023-03-03T01:28:17;97174.06;;;5.89;50.03
30873;BME280;17579;42.690;2.586;2023-03-03T01:30:42;97182.06;;;5.88;50.20
30873;BME280;17579;42.690;2.586;2023-03-03T01:33:08;97171.44;;;5.89;50.35
30873;BME280;17579;42.690;2.586;2023-03-03T01:35:33;97161.66;;;5.92;50.17
30873;BME280;17579;42.690;2.586;2023-03-03T01:38:00;97168.69;;;5.91;50.28
30873;BME280;17579;42.690;2.586;2023-03-03T01:40:28;97169.53;;;5.92;50.37
30873;BME280;17579;42.690;2.586;2023-03-03T01:42:54;97157.25;;;5.92;50.53
30873;BME280;17579;42.690;2.586;2023-03-03T01:45:24;97150.31;;;5.91;50.27
30873;BME280;17579;42.690;2.586;2023-03-03T01:48:16;97150.56;;;5.88;50.45
30873;BME280;17579;42.690;2.586;2023-03-03T01:50:44;97154.38;;;5.95;50.51
30873;BME280;17579;42.690;2.586;2023-03-03T01:53:18;97145.19;;;5.89;50.19
30873;BME280;17579;42.690;2.586;2023-03-03T01:55:45;97133.97;;;5.87;50.45
30873;BME280;17579;42.690;2.586;2023-03-03T01:58:18;97141.00;;;5.87;50.43
30873;BME280;17579;42.690;2.586;2023-03-03T02:00:49;97132.91;;;5.90;50.30
30873;BME280;17579;42.690;2.586;2023-03-03T02:03:18;97144.13;;;5.92;50.14
30873;BME280;17579;42.690;2.586;2023-03-03T02:05:45;97142.22;;;5.94;50.10
30873;BME280;17579;42.690;2.586;2023-03-03T02:08:15;97143.03;;;5.95;49.98
30873;BME280;17579;42.690;2.586;2023-03-03T02:10:45;97145.56;;;5.96;50.13
30873;BME280;17579;42.690;2.586;2023-03-03T02:13:11;97143.91;;;5.95;50.09
30873;BME280;17579;42.690;2.586;2023-03-03T02:15:36;97144.63;;;5.97;49.89
30873;BME280;17579;42.690;2.586;2023-03-03T02:18:05;97141.16;;;5.97;50.09
30873;BME280;17579;42.690;2.586;2023-03-03T02:26:06;97141.75;;;5.89;49.92
30873;BME280;17579;42.690;2.586;2023-03-03T02:28:34;97129.22;;;5.93;50.01
30873;BME280;17579;42.690;2.586;2023-03-03T02:31:00;97131.25;;;5.89;50.27
30873;BME280;17579;42.690;2.586;2023-03-03T02:33:26;97136.59;;;5.87;50.28
30873;BME280;17579;42.690;2.586;2023-03-03T02:35:52;97135.06;;;5.85;50.33
30873;BME280;17579;42.690;2.586;2023-03-03T02:38:25;97141.75;;;5.78;50.45
30873;BME280;17579;42.690;2.586;2023-03-03T02:40:59;97134.81;;;5.77;50.66
30873;BME280;17579;42.690;2.586;2023-03-03T02:43:37;97141.13;;;5.74;50.65
30873;BME280;17579;42.690;2.586;2023-03-03T02:46:06;97140.41;;;5.72;51.05
30873;BME280;17579;42.690;2.586;2023-03-03T02:48:31;97132.66;;;5.70;51.06
30873;BME280;17579;42.690;2.586;2023-03-03T02:50:57;97140.75;;;5.67;50.99
30873;BME280;17579;42.690;2.586;2023-03-03T02:53:22;97135.75;;;5.64;50.96
30873;BME280;17579;42.690;2.586;2023-03-03T02:55:48;97143.84;;;5.61;51.15
30873;BME280;17579;42.690;2.586;2023-03-03T02:58:13;97145.75;;;5.59;51.30
30873;BME280;17579;42.690;2.586;2023-03-03T03:00:39;97135.38;;;5.58;51.45
30873;BME280;17579;42.690;2.586;2023-03-03T03:03:04;97135.50;;;5.56;51.57
30873;BME280;17579;42.690;2.586;2023-03-03T03:05:30;97127.38;;;5.48;51.60
30873;BME280;17579;42.690;2.586;2023-03-03T03:07:55;97134.38;;;5.47;51.79
30873;BME280;17579;42.690;2.586;2023-03-03T03:10:21;97131.88;;;5.46;51.66
30873;BME280;17579;42.690;2.586;2023-03-03T03:12:46;97129.16;;;5.47;51.60
30873;BME280;17579;42.690;2.586;2023-03-03T03:15:12;97116.03;;;5.47;51.40
30873;BME280;17579;42.690;2.586;2023-03-03T03:17:38;97123.06;;;5.47;51.59
30873;BME280;17579;42.690;2.586;2023-03-03T03:20:04;97130.94;;;5.47;51.59
30873;BME280;17579;42.690;2.586;2023-03-03T03:22:30;97132.00;;;5.44;51.45
30873;BME280;17579;42.690;2.586;2023-03-03T03:24:55;97138.00;;;5.46;51.51
30873;BME280;17579;42.690;2.586;2023-03-03T03:27:21;97131.88;;;5.46;51.32
30873;BME280;17579;42.690;2.586;2023-03-03T03:29:47;97140.72;;;5.45;51.23
30873;BME280;17579;42.690;2.586;2023-03-03T03:32:13;97144.78;;;5.49;51.20
30873;BME280;17579;42.690;2.586;2023-03-03T03:34:39;97149.19;;;5.48;50.96
30873;BME280;17579;42.690;2.586;2023-03-03T03:37:04;97138.56;;;5.50;50.66
30873;BME280;17579;42.690;2.586;2023-03-03T03:39:30;97137.50;;;5.52;50.63
30873;BME280;17579;42.690;2.586;2023-03-03T03:41:56;97129.66;;;5.52;50.58
30873;BME280;17579;42.690;2.586;2023-03-03T03:44:21;97125.09;;;5.54;50.49
30873;BME280;17579;42.690;2.586;2023-03-03T03:46:49;97147.78;;;5.55;50.25
30873;BME280;17579;42.690;2.586;2023-03-03T03:49:17;97131.09;;;5.57;50.62
30873;BME280;17579;42.690;2.586;2023-03-03T03:51:42;97133.84;;;5.55;50.08
30873;BME280;17579;42.690;2.586;2023-03-03T03:54:08;97117.97;;;5.57;49.97
30873;BME280;17579;42.690;2.586;2023-03-03T03:56:33;97139.66;;;5.59;50.04
30873;BME280;17579;42.690;2.586;2023-03-03T03:58:59;97134.22;;;5.62;49.82
30873;BME280;17579;42.690;2.586;2023-03-03T04:01:25;97144.69;;;5.62;49.55
30873;BME280;17579;42.690;2.586;2023-03-03T04:03:51;97142.06;;;5.62;49.70
30873;BME280;17579;42.690;2.586;2023-03-03T04:06:17;97140.28;;;5.62;49.48
30873;BME280;17579;42.690;2.586;2023-03-03T04:08:42;97147.09;;;5.65;49.35
30873;BME280;17579;42.690;2.586;2023-03-03T04:11:08;97149.72;;;5.65;49.21
30873;BME280;17579;42.690;2.586;2023-03-03T04:13:34;97131.34;;;5.65;49.08
30873;BME280;17579;42.690;2.586;2023-03-03T04:16:00;97149.94;;;5.62;49.02
30873;BME280;17579;42.690;2.586;2023-03-03T04:18:26;97156.72;;;5.64;48.93
30873;BME280;17579;42.690;2.586;2023-03-03T04:20:52;97150.66;;;5.64;49.00
30873;BME280;17579;42.690;2.586;2023-03-03T04:23:19;97148.75;;;5.66;48.77
30873;BME280;17579;42.690;2.586;2023-03-03T04:25:46;97152.22;;;5.66;48.85
30873;BME280;17579;42.690;2.586;2023-03-03T04:28:13;97142.53;;;5.67;48.62
30873;BME280;17579;42.690;2.586;2023-03-03T04:30:39;97150.31;;;5.68;48.43
30873;BME280;17579;42.690;2.586;2023-03-03T04:33:05;97146.84;;;5.68;48.61
30873;BME280;17579;42.690;2.586;2023-03-03T04:35:30;97147.69;;;5.68;48.70
30873;BME280;17579;42.690;2.586;2023-03-03T04:37:56;97151.16;;;5.69;48.42
30873;BME280;17579;42.690;2.586;2023-03-03T04:40:21;97148.63;;;5.67;48.26
30873;BME280;17579;42.690;2.586;2023-03-03T04:42:47;97151.16;;;5.69;48.00
30873;BME280;17579;42.690;2.586;2023-03-03T04:45:12;97153.03;;;5.67;48.19
30873;BME280;17579;42.690;2.586;2023-03-03T04:47:38;97155.53;;;5.68;47.99
30873;BME280;17579;42.690;2.586;2023-03-03T04:50:04;97153.16;;;5.65;48.05
30873;BME280;17579;42.690;2.586;2023-03-03T04:52:30;97143.59;;;5.64;47.98
30873;BME280;17579;42.690;2.586;2023-03-03T04:54:55;97154.09;;;5.64;47.94
30873;BME280;17579;42.690;2.586;2023-03-03T04:57:21;97142.66;;;5.65;48.02
30873;BME280;17579;42.690;2.586;2023-03-03T04:59:46;97147.91;;;5.65;48.17
30873;BME280;17579;42.690;2.586;2023-03-03T05:02:12;97142.78;;;5.64;48.03
30873;BME280;17579;42.690;2.586;2023-03-03T05:04:39;97153.28;;;5.64;48.11
30873;BME280;17579;42.690;2.586;2023-03-03T05:07:04;97144.69;;;5.62;48.11
30873;BME280;17579;42.690;2.586;2023-03-03T05:09:30;97148.84;;;5.64;48.22
30873;BME280;17579;42.690;2.586;2023-03-03T05:11:55;97150.66;;;5.64;48.28
30873;BME280;17579;42.690;2.586;2023-03-03T05:14:21;97147.22;;;5.63;48.49
30873;BME280;17579;42.690;2.586;2023-03-03T05:16:47;97161.03;;;5.65;48.50
30873;BME280;17579;42.690;2.586;2023-03-03T05:19:12;97156.72;;;5.64;48.39
30873;BME280;17579;42.690;2.586;2023-03-03T05:21:38;97161.16;;;5.64;48.44
30873;BME280;17579;42.690;2.586;2023-03-03T05:24:08;97152.56;;;5.62;48.57
30873;BME280;17579;42.690;2.586;2023-03-03T05:26:34;97147.31;;;5.62;48.43
30873;BME280;17579;42.690;2.586;2023-03-03T05:29:02;97151.00;;;5.59;48.61
30873;BME280;17579;42.690;2.586;2023-03-03T05:31:28;97147.41;;;5.60;48.67
30873;BME280;17579;42.690;2.586;2023-03-03T05:33:53;97154.34;;;5.61;48.60
30873;BME280;17579;42.690;2.586;2023-03-03T05:36:19;97151.72;;;5.61;48.59
30873;BME280;17579;42.690;2.586;2023-03-03T05:38:44;97162.44;;;5.58;48.67
30873;BME280;17579;42.690;2.586;2023-03-03T05:41:10;97159.00;;;5.58;48.60
30873;BME280;17579;42.690;2.586;2023-03-03T05:43:35;97168.63;;;5.57;48.51
30873;BME280;17579;42.690;2.586;2023-03-03T05:46:02;97157.44;;;5.55;48.49
30873;BME280;17579;42.690;2.586;2023-03-03T05:48:27;97168.06;;;5.53;48.69
30873;BME280;17579;42.690;2.586;2023-03-03T05:50:53;97179.50;;;5.52;48.68
30873;BME280;17579;42.690;2.586;2023-03-03T05:53:18;97167.19;;;5.53;48.74
30873;BME280;17579;42.690;2.586;2023-03-03T05:55:44;97167.19;;;5.53;48.67
30873;BME280;17579;42.690;2.586;2023-03-03T05:58:10;97155.16;;;5.50;48.66
30873;BME280;17579;42.690;2.586;2023-03-03T06:00:36;97163.16;;;5.49;48.73
30873;BME280;17579;42.690;2.586;2023-03-03T06:03:02;97170.16;;;5.48;48.81
30873;BME280;17579;42.690;2.586;2023-03-03T06:05:28;97174.72;;;5.46;48.61
30873;BME280;17579;42.690;2.586;2023-03-03T06:07:54;97165.16;;;5.45;48.63
30873;BME280;17579;42.690;2.586;2023-03-03T06:10:19;97160.97;;;5.43;48.80
30873;BME280;17579;42.690;2.586;2023-03-03T06:12:45;97168.97;;;5.41;48.88
30873;BME280;17579;42.690;2.586;2023-03-03T06:15:10;97168.97;;;5.41;49.01
30873;BME280;17579;42.690;2.586;2023-03-03T06:17:36;97171.59;;;5.41;49.07
30873;BME280;17579;42.690;2.586;2023-03-03T06:20:02;97176.13;;;5.39;49.03
30873;BME280;17579;42.690;2.586;2023-03-03T06:22:29;97168.38;;;5.37;49.06
30873;BME280;17579;42.690;2.586;2023-03-03T06:24:54;97170.38;;;5.34;49.10
30873;BME280;17579;42.690;2.586;2023-03-03T06:27:20;97169.53;;;5.33;49.33
30873;BME280;17579;42.690;2.586;2023-03-03T06:29:45;97173.00;;;5.34;49.38
30873;BME280;17579;42.690;2.586;2023-03-03T06:32:11;97173.00;;;5.34;49.43
30873;BME280;17579;42.690;2.586;2023-03-03T06:34:36;97169.66;;;5.32;49.69
30873;BME280;17579;42.690;2.586;2023-03-03T06:37:02;97182.66;;;5.33;49.33
30873;BME280;17579;42.690;2.586;2023-03-03T06:39:28;97172.06;;;5.35;49.60
30873;BME280;17579;42.690;2.586;2023-03-03T06:41:53;97181.47;;;5.37;49.60
30873;BME280;17579;42.690;2.586;2023-03-03T06:44:19;97182.31;;;5.38;49.67
30873;BME280;17579;42.690;2.586;2023-03-03T06:46:45;97189.25;;;5.39;49.76
30873;BME280;17579;42.690;2.586;2023-03-03T06:49:10;97192.56;;;5.41;49.73
30873;BME280;17579;42.690;2.586;2023-03-03T06:51:37;97184.47;;;5.44;49.63
30873;BME280;17579;42.690;2.586;2023-03-03T06:56:36;97193.78;;;5.48;49.57
30873;BME280;17579;42.690;2.586;2023-03-03T06:59:04;97195.22;;;5.52;49.37
30873;BME280;17579;42.690;2.586;2023-03-03T07:01:34;97190.69;;;5.54;49.57
30873;BME280;17579;42.690;2.586;2023-03-03T07:04:09;97196.69;;;5.57;49.39
30873;BME280;17579;42.690;2.586;2023-03-03T07:06:36;97200.75;;;5.61;49.45
30873;BME280;17579;42.690;2.586;2023-03-03T07:09:19;97216.50;;;5.61;49.26
30873;BME280;17579;42.690;2.586;2023-03-03T07:11:45;97221.38;;;5.65;49.24
30873;BME280;17579;42.690;2.586;2023-03-03T07:14:15;97214.47;;;5.64;49.24
30873;BME280;17579;42.690;2.586;2023-03-03T07:16:42;97212.44;;;5.68;49.61
30873;BME280;17579;42.690;2.586;2023-03-03T07:21:51;97211.03;;;5.75;49.25
30873;BME280;17579;42.690;2.586;2023-03-03T07:26:47;97217.13;;;5.87;49.28
30873;BME280;17579;42.690;2.586;2023-03-03T07:29:28;97215.25;;;5.89;49.16
30873;BME280;17579;42.690;2.586;2023-03-03T07:31:56;97221.38;;;6.01;49.16
30873;BME280;17579;42.690;2.586;2023-03-03T07:37:16;97221.59;;;6.09;49.20
30873;BME280;17579;42.690;2.586;2023-03-03T07:39:44;97231.91;;;6.12;49.27
30873;BME280;17579;42.690;2.586;2023-03-03T07:44:40;97226.16;;;6.18;49.47
30873;BME280;17579;42.690;2.586;2023-03-03T07:47:17;97221.63;;;6.20;49.34
30873;BME280;17579;42.690;2.586;2023-03-03T07:49:45;97222.59;;;6.31;49.31
30873;BME280;17579;42.690;2.586;2023-03-03T07:54:39;97219.38;;;6.38;49.20
30873;BME280;17579;42.690;2.586;2023-03-03T07:57:28;97225.44;;;6.39;49.22
30873;BME280;17579;42.690;2.586;2023-03-03T08:02:40;97217.31;;;6.53;48.99
30873;BME280;17579;42.690;2.586;2023-03-03T08:07:34;97214.09;;;6.61;49.12
30873;BME280;17579;42.690;2.586;2023-03-03T08:10:01;97222.31;;;6.68;48.86
30873;BME280;17579;42.690;2.586;2023-03-03T08:12:29;97225.44;;;6.73;48.74
30873;BME280;17579;42.690;2.586;2023-03-03T08:14:57;97216.34;;;6.77;48.81
30873;BME280;17579;42.690;2.586;2023-03-03T08:17:35;97226.50;;;6.82;48.75
30873;BME280;17579;42.690;2.586;2023-03-03T08:22:36;97228.38;;;6.91;48.77
30873;BME280;17579;42.690;2.586;2023-03-03T08:25:02;97228.16;;;6.94;48.58
30873;BME280;17579;42.690;2.586;2023-03-03T08:27:28;97217.38;;;6.97;48.68
30873;BME280;17579;42.690;2.586;2023-03-03T08:29:54;97220.47;;;7.02;48.48
30873;BME280;17579;42.690;2.586;2023-03-03T08:32:19;97235.03;;;7.06;48.10
30873;BME280;17579;42.690;2.586;2023-03-03T08:34:45;97217.81;;;7.14;48.32
30873;BME280;17579;42.690;2.586;2023-03-03T08:37:10;97222.59;;;7.20;48.09
30873;BME280;17579;42.690;2.586;2023-03-03T08:39:36;97229.97;;;7.26;48.29
30873;BME280;17579;42.690;2.586;2023-03-03T08:42:02;97217.03;;;7.34;48.01
30873;BME280;17579;42.690;2.586;2023-03-03T08:44:27;97230.63;;;7.39;48.01
30873;BME280;17579;42.690;2.586;2023-03-03T08:46:53;97236.63;;;7.41;48.10
30873;BME280;17579;42.690;2.586;2023-03-03T08:49:20;97233.59;;;7.46;48.05
30873;BME280;17579;42.690;2.586;2023-03-03T08:51:45;97234.91;;;7.52;48.30
30873;BME280;17579;42.690;2.586;2023-03-03T08:54:11;97237.72;;;7.60;48.09
30873;BME280;17579;42.690;2.586;2023-03-03T08:56:36;97227.66;;;7.65;48.04
30873;BME280;17579;42.690;2.586;2023-03-03T08:59:02;97238.91;;;7.67;47.74
30873;BME280;17579;42.690;2.586;2023-03-03T09:01:28;97234.06;;;7.72;47.79
30873;BME280;17579;42.690;2.586;2023-03-03T09:03:54;97235.75;;;7.73;47.90
30873;BME280;17579;42.690;2.586;2023-03-03T09:06:20;97238.94;;;7.77;47.97
30873;BME280;17579;42.690;2.586;2023-03-03T09:08:46;97231.50;;;7.82;47.37
30873;BME280;17579;42.690;2.586;2023-03-03T09:11:12;97211.13;;;7.84;47.85
30873;BME280;17579;42.690;2.586;2023-03-03T09:13:38;97242.94;;;7.92;47.46
30873;BME280;17579;42.690;2.586;2023-03-03T09:16:09;97231.66;;;8.02;47.78
30873;BME280;17579;42.690;2.586;2023-03-03T09:18:37;97231.13;;;8.08;47.12
30873;BME280;17579;42.690;2.586;2023-03-03T09:21:22;97228.91;;;8.13;47.18
30873;BME280;17579;42.690;2.586;2023-03-03T09:23:53;97232.00;;;8.18;47.04
30873;BME280;17579;42.690;2.586;2023-03-03T09:28:54;97238.03;;;8.30;47.02
30873;BME280;17579;42.690;2.586;2023-03-03T09:31:25;97245.78;;;8.31;47.05
30873;BME280;17579;42.690;2.586;2023-03-03T09:33:52;97257.22;;;8.42;47.02
30873;BME280;17579;42.690;2.586;2023-03-03T09:36:26;97248.09;;;8.46;47.24
30873;BME280;17579;42.690;2.586;2023-03-03T09:38:54;97241.22;;;8.55;47.11
30873;BME280;17579;42.690;2.586;2023-03-03T09:47:43;97253.78;;;8.82;47.13
30873;BME280;17579;42.690;2.586;2023-03-03T09:50:54;97246.06;;;8.90;46.80
30873;BME280;17579;42.690;2.586;2023-03-03T09:58:30;97237.19;;;8.91;46.57
30873;BME280;17579;42.690;2.586;2023-03-03T10:01:03;97233.31;;;8.95;46.30
30873;BME280;17579;42.690;2.586;2023-03-03T10:06:07;97233.56;;;9.02;46.64
30873;BME280;17579;42.690;2.586;2023-03-03T10:11:43;97234.19;;;9.25;45.93
30873;BME280;17579;42.690;2.586;2023-03-03T10:22:05;97246.31;;;9.67;45.51
30873;BME280;17579;42.690;2.586;2023-03-03T10:30:20;97250.72;;;9.96;44.92
30873;BME280;17579;42.690;2.586;2023-03-03T10:33:05;97234.00;;;10.05;44.68
30873;BME280;17579;42.690;2.586;2023-03-03T10:35:37;97244.84;;;10.12;44.88
30873;BME280;17579;42.690;2.586;2023-03-03T10:43:49;97250.50;;;10.46;44.42
30873;BME280;17579;42.690;2.586;2023-03-03T10:57:39;97230.78;;;10.68;43.52
30873;BME280;17579;42.690;2.586;2023-03-03T11:00:29;97226.84;;;10.72;43.79
30873;BME280;17579;42.690;2.586;2023-03-03T11:06:04;97221.66;;;10.81;43.46
30873;BME280;17579;42.690;2.586;2023-03-03T11:08:37;97211.19;;;10.89;43.25
30873;BME280;17579;42.690;2.586;2023-03-03T11:11:09;97212.09;;;10.98;43.02
30873;BME280;17579;42.690;2.586;2023-03-03T11:21:27;97216.97;;;11.20;43.19
30873;BME280;17579;42.690;2.586;2023-03-03T11:24:05;97201.97;;;11.29;42.57
30873;BME280;17579;42.690;2.586;2023-03-03T11:32:20;97197.88;;;11.71;42.64
30873;BME280;17579;42.690;2.586;2023-03-03T11:34:57;97201.28;;;11.81;41.79
30873;BME280;17579;42.690;2.586;2023-03-03T11:37:28;97197.94;;;11.79;41.53
30873;BME280;17579;42.690;2.586;2023-03-03T11:40:08;97198.09;;;11.77;41.92
30873;BME280;17579;42.690;2.586;2023-03-03T11:42:59;97190.22;;;11.86;41.50
30873;BME280;17579;42.690;2.586;2023-03-03T11:45:34;97207.03;;;11.94;40.94
30873;BME280;17579;42.690;2.586;2023-03-03T11:50:57;97195.50;;;12.04;40.76
30873;BME280;17579;42.690;2.586;2023-03-03T11:56:09;97203.50;;;12.12;40.81
30873;BME280;17579;42.690;2.586;2023-03-03T11:58:48;97192.97;;;12.20;41.12
30873;BME280;17579;42.690;2.586;2023-03-03T12:01:22;97201.13;;;12.27;41.29
30873;BME280;17579;42.690;2.586;2023-03-03T12:03:57;97196.53;;;12.37;40.65
30873;BME280;17579;42.690;2.586;2023-03-03T12:09:16;97193.41;;;12.42;39.99
30873;BME280;17579;42.690;2.586;2023-03-03T12:11:48;97184.91;;;12.38;40.17
30873;BME280;17579;42.690;2.586;2023-03-03T12:14:54;97193.19;;;12.35;40.89
30873;BME280;17579;42.690;2.586;2023-03-03T12:17:46;97189.06;;;12.33;40.23
30873;BME280;17579;42.690;2.586;2023-03-03T12:20:24;97190.53;;;12.35;40.17
30873;BME280;17579;42.690;2.586;2023-03-03T12:22:59;97178.47;;;12.33;39.46
30873;BME280;17579;42.690;2.586;2023-03-03T12:25:42;97182.41;;;12.28;39.70
30873;BME280;17579;42.690;2.586;2023-03-03T12:28:17;97185.06;;;12.28;40.23
30873;BME280;17579;42.690;2.586;2023-03-03T12:36:57;97178.16;;;12.44;39.90
30873;BME280;17579;42.690;2.586;2023-03-03T12:39:46;97180.50;;;12.47;40.36
30873;BME280;17579;42.690;2.586;2023-03-03T12:42:20;97162.47;;;12.59;39.39
30873;BME280;17579;42.690;2.586;2023-03-03T12:48:16;97175.06;;;12.57;39.53
30873;BME280;17579;42.690;2.586;2023-03-03T12:56:09;97171.47;;;12.66;39.40
30873;BME280;17579;42.690;2.586;2023-03-03T13:01:32;97155.38;;;12.68;37.94
30873;BME280;17579;42.690;2.586;2023-03-03T13:04:04;97158.69;;;12.61;38.47
30873;BME280;17579;42.690;2.586;2023-03-03T13:09:41;97144.06;;;12.65;39.18
30873;BME280;17579;42.690;2.586;2023-03-03T13:12:18;97150.41;;;12.73;38.50
30873;BME280;17579;42.690;2.586;2023-03-03T13:14:51;97151.59;;;12.78;38.67
30873;BME280;17579;42.690;2.586;2023-03-03T13:17:21;97144.97;;;12.82;38.43
30873;BME280;17579;42.690;2.586;2023-03-03T13:22:25;97140.19;;;12.86;38.34
30873;BME280;17579;42.690;2.586;2023-03-03T13:25:06;97150.31;;;12.91;37.89
30873;BME280;17579;42.690;2.586;2023-03-03T13:27:36;97145.47;;;12.86;38.25
30873;BME280;17579;42.690;2.586;2023-03-03T13:32:39;97149.00;;;13.03;38.50
30873;BME280;17579;42.690;2.586;2023-03-03T13:37:45;97138.72;;;13.08;38.10
30873;BME280;17579;42.690;2.586;2023-03-03T13:42:47;97141.72;;;13.13;38.23
30873;BME280;17579;42.690;2.586;2023-03-03T13:45:22;97146.00;;;13.14;37.82
30873;BME280;17579;42.690;2.586;2023-03-03T13:47:58;97142.06;;;13.10;37.91
30873;BME280;17579;42.690;2.586;2023-03-03T13:50:36;97141.53;;;13.07;38.04
30873;BME280;17579;42.690;2.586;2023-03-03T13:55:45;97137.72;;;13.09;37.90
30873;BME280;17579;42.690;2.586;2023-03-03T13:58:41;97134.38;;;13.07;38.25
30873;BME280;17579;42.690;2.586;2023-03-03T14:01:20;97146.19;;;13.21;37.80
30873;BME280;17579;42.690;2.586;2023-03-03T14:03:54;97151.34;;;13.31;37.65
30873;BME280;17579;42.690;2.586;2023-03-03T14:06:28;97141.59;;;13.40;37.00
30873;BME280;17579;42.690;2.586;2023-03-03T14:11:24;97138.59;;;13.67;36.69
30873;BME280;17579;42.690;2.586;2023-03-03T14:14:02;97132.09;;;13.86;36.64
30873;BME280;17579;42.690;2.586;2023-03-03T14:19:16;97134.94;;;14.41;36.02
30873;BME280;17579;42.690;2.586;2023-03-03T14:21:48;97138.88;;;14.53;35.46
30873;BME280;17579;42.690;2.586;2023-03-03T14:24:20;97133.56;;;14.62;35.60
30873;BME280;17579;42.690;2.586;2023-03-03T14:26:52;97138.50;;;14.73;35.51
30873;BME280;17579;42.690;2.586;2023-03-03T14:29:29;97128.44;;;14.83;35.10
30873;BME280;17579;42.690;2.586;2023-03-03T14:31:58;97143.16;;;14.71;34.61
30873;BME280;17579;42.690;2.586;2023-03-03T14:34:35;97137.06;;;14.54;35.05
30873;BME280;17579;42.690;2.586;2023-03-03T14:39:32;97133.69;;;14.60;34.37
30873;BME280;17579;42.690;2.586;2023-03-03T14:41:58;97115.09;;;14.52;34.59
30873;BME280;17579;42.690;2.586;2023-03-03T14:44:35;97131.16;;;14.35;34.97
30873;BME280;17579;42.690;2.586;2023-03-03T14:47:26;97133.31;;;14.32;34.85
30873;BME280;17579;42.690;2.586;2023-03-03T14:49:48;97117.84;;;14.35;34.84
30873;BME280;17579;42.690;2.586;2023-03-03T14:52:21;97135.00;;;14.25;35.15
30873;BME280;17579;42.690;2.586;2023-03-03T14:54:50;97131.00;;;14.20;34.82
30873;BME280;17579;42.690;2.586;2023-03-03T14:57:19;97132.16;;;14.26;35.01
30873;BME280;17579;42.690;2.586;2023-03-03T15:00:04;97133.13;;;14.33;35.85
30873;BME280;17579;42.690;2.586;2023-03-03T15:02:35;97126.97;;;14.41;35.34
30873;BME280;17579;42.690;2.586;2023-03-03T15:05:27;97139.31;;;14.34;35.00
30873;BME280;17579;42.690;2.586;2023-03-03T15:07:51;97143.13;;;14.31;35.13
30873;BME280;17579;42.690;2.586;2023-03-03T15:12:44;97137.63;;;14.41;34.48
30873;BME280;17579;42.690;2.586;2023-03-03T15:17:40;97136.59;;;14.42;34.65
30873;BME280;17579;42.690;2.586;2023-03-03T15:23:00;97133.97;;;14.34;34.40
30873;BME280;17579;42.690;2.586;2023-03-03T15:36:28;97122.22;;;14.20;34.85
30873;BME280;17579;42.690;2.586;2023-03-03T15:39:07;97119.75;;;14.10;35.34
30873;BME280;17579;42.690;2.586;2023-03-03T15:44:12;97111.66;;;13.95;35.69
30873;BME280;17579;42.690;2.586;2023-03-03T15:47:03;97119.47;;;13.89;35.91
30873;BME280;17579;42.690;2.586;2023-03-03T15:49:48;97117.47;;;13.91;35.31
30873;BME280;17579;42.690;2.586;2023-03-03T15:55:43;97127.47;;;13.64;36.11
30873;BME280;17579;42.690;2.586;2023-03-03T16:05:37;97119.47;;;13.06;36.11
30873;BME280;17579;42.690;2.586;2023-03-03T16:08:15;97115.81;;;12.99;36.84
30873;BME280;17579;42.690;2.586;2023-03-03T16:11:01;97117.13;;;12.95;36.52
30873;BME280;17579;42.690;2.586;2023-03-03T16:16:38;97116.25;;;12.78;37.12
30873;BME280;17579;42.690;2.586;2023-03-03T16:19:34;97111.09;;;12.68;37.00
30873;BME280;17579;42.690;2.586;2023-03-03T16:22:14;97123.19;;;12.62;37.01
30873;BME280;17579;42.690;2.586;2023-03-03T16:25:05;97129.78;;;12.50;37.38
30873;BME280;17579;42.690;2.586;2023-03-03T16:28:00;97123.63;;;12.41;37.20
30873;BME280;17579;42.690;2.586;2023-03-03T16:30:51;97125.53;;;12.31;37.39
30873;BME280;17579;42.690;2.586;2023-03-03T16:33:26;97136.78;;;12.25;37.24
30873;BME280;17579;42.690;2.586;2023-03-03T16:36:00;97142.06;;;12.17;37.68